Time;durP1;ratioP1;P1;durP2;ratioP2;P2;SDS_P1;SDS_P2;PMS_P1;PMS_P2;Temp;Humidity;BMP_temperature;BMP_pressure;BME280_temperature;BME280_humidity;BME280_pressure;Samples;Min_cycle;Max_cycle;Signal;HPM_P1;HPM_P2
2023/07/06 00:01:40;;;;;;;0.50;0.40;;;13.20;99.90;;;;;;5031197;28;20454;-82
2023/07/06 00:04:07;;;;;;;0.50;0.40;;;13.10;99.90;;;;;;5015297;28;20467;-82
2023/07/06 00:06:34;;;;;;;0.50;0.40;;;13.10;99.90;;;;;;5033644;28;20477;-83
2023/07/06 00:09:01;;;;;;;0.50;0.40;;;13.10;99.90;;;;;;5026764;28;20533;-83
2023/07/06 00:11:34;;;;;;;0.50;0.40;;;13.10;99.90;;;;;;5034880;28;20449;-83
2023/07/06 00:14:01;;;;;;;0.50;0.40;;;13.10;99.90;;;;;;5024071;28;20465;-83
2023/07/06 00:16:28;;;;;;;0.50;0.33;;;13.00;99.90;;;;;;5023697;28;20442;-82
2023/07/06 00:18:58;;;;;;;0.50;0.40;;;13.00;99.90;;;;;;5024401;28;20453;-83
2023/07/06 00:21:25;;;;;;;0.50;0.40;;;13.10;99.90;;;;;;5028830;28;20443;-83
2023/07/06 00:23:52;;;;;;;0.50;0.40;;;13.00;99.90;;;;;;5032079;28;20982;-83
2023/07/06 00:26:20;;;;;;;0.50;0.40;;;13.00;99.90;;;;;;5034427;28;20483;-83
2023/07/06 00:28:49;;;;;;;0.50;0.40;;;13.00;99.90;;;;;;5025813;28;20465;-82
2023/07/06 00:31:21;;;;;;;0.50;0.40;;;12.90;99.90;;;;;;5034630;28;20470;-82
2023/07/06 00:33:48;;;;;;;0.50;0.40;;;13.00;99.90;;;;;;5034011;28;20496;-84
2023/07/06 00:36:15;;;;;;;0.50;0.40;;;13.00;99.90;;;;;;5034650;28;20439;-83
2023/07/06 00:38:42;;;;;;;0.50;0.40;;;13.00;99.90;;;;;;5034228;28;20442;-83
2023/07/06 00:41:09;;;;;;;0.50;0.40;;;13.00;99.90;;;;;;5033820;28;20447;-83
2023/07/06 00:43:52;;;;;;;0.50;0.40;;;13.00;99.90;;;;;;5026311;28;20467;-83
2023/07/06 00:46:20;;;;;;;0.50;0.40;;;13.10;99.90;;;;;;5020364;28;20482;-83
2023/07/06 00:48:48;;;;;;;0.50;0.40;;;13.10;99.90;;;;;;5025705;28;20443;-81
2023/07/06 00:51:18;;;;;;;0.50;0.40;;;13.00;99.90;;;;;;5034159;28;20434;-82
2023/07/06 00:53:48;;;;;;;0.50;0.40;;;13.00;99.90;;;;;;5034558;28;20545;-83
2023/07/06 00:56:20;;;;;;;0.60;0.50;;;13.00;99.90;;;;;;5019189;28;20441;-83
2023/07/06 00:58:51;;;;;;;0.50;0.40;;;13.00;99.90;;;;;;5025920;28;20828;-82
2023/07/06 01:01:22;;;;;;;1.03;1.03;;;13.10;99.90;;;;;;5015148;28;20456;-82
2023/07/06 01:03:53;;;;;;;0.50;0.40;;;13.00;99.90;;;;;;5022406;28;20690;-81
2023/07/06 01:06:26;;;;;;;0.50;0.40;;;13.10;99.90;;;;;;5033836;28;20844;-83
2023/07/06 01:08:54;;;;;;;0.50;0.40;;;13.10;99.90;;;;;;5033671;28;20442;-83
2023/07/06 01:11:21;;;;;;;0.50;0.40;;;13.10;99.90;;;;;;5029088;28;20865;-80
2023/07/06 01:13:51;;;;;;;0.50;0.40;;;13.10;99.90;;;;;;5030125;28;20992;-83
2023/07/06 01:16:26;;;;;;;0.50;0.50;;;13.10;99.90;;;;;;5018867;28;20488;-82
2023/07/06 01:19:02;;;;;;;0.50;0.40;;;13.10;99.90;;;;;;5023624;28;20444;-82
2023/07/06 01:21:36;;;;;;;0.50;0.40;;;13.10;99.90;;;;;;5027474;28;20811;-82
2023/07/06 01:24:23;;;;;;;0.50;0.40;;;13.10;99.90;;;;;;5025128;28;20466;-83
2023/07/06 01:27:17;;;;;;;0.50;0.40;;;13.00;99.90;;;;;;5033269;28;20481;-84
2023/07/06 01:30:09;;;;;;;0.50;0.40;;;13.00;99.90;;;;;;5025248;28;20461;-83
2023/07/06 01:32:41;;;;;;;0.50;0.40;;;13.00;99.90;;;;;;5033284;28;20473;-83
2023/07/06 01:35:16;;;;;;;0.93;0.80;;;13.00;99.90;;;;;;5024804;28;20451;-82
2023/07/06 01:37:45;;;;;;;0.50;0.40;;;13.00;99.90;;;;;;5025500;28;20955;-84
2023/07/06 01:40:12;;;;;;;0.50;0.40;;;13.10;99.90;;;;;;5022088;28;20432;-83
2023/07/06 01:42:42;;;;;;;0.50;0.40;;;13.00;99.90;;;;;;5021855;28;20535;-84
2023/07/06 01:45:15;;;;;;;0.50;0.40;;;13.00;99.90;;;;;;5032307;28;20441;-82
2023/07/06 01:47:47;;;;;;;0.50;0.40;;;12.90;99.90;;;;;;5018186;28;20475;-83
2023/07/06 01:50:17;;;;;;;0.50;0.40;;;12.90;99.90;;;;;;5029614;28;21230;-83
2023/07/06 01:53:05;;;;;;;0.50;0.40;;;12.80;99.90;;;;;;5028746;28;20476;-82
2023/07/06 01:55:38;;;;;;;0.50;0.40;;;12.80;99.90;;;;;;5015810;28;20451;-83
2023/07/06 01:58:10;;;;;;;0.50;0.40;;;12.80;99.90;;;;;;5030783;28;20444;-83
2023/07/06 02:00:41;;;;;;;0.50;0.40;;;12.70;99.90;;;;;;5024774;28;20450;-83
2023/07/06 02:03:12;;;;;;;0.50;0.40;;;12.70;99.90;;;;;;5030602;28;20481;-81
2023/07/06 02:05:41;;;;;;;0.50;0.40;;;12.60;99.90;;;;;;5027663;28;20942;-83
2023/07/06 02:08:09;;;;;;;0.67;0.63;;;12.60;99.90;;;;;;5024435;28;20450;-83
2023/07/06 02:10:36;;;;;;;0.50;0.40;;;12.50;99.90;;;;;;5032260;28;20472;-83
2023/07/06 02:13:03;;;;;;;0.50;0.40;;;12.50;99.90;;;;;;5032324;28;21008;-83
2023/07/06 02:15:31;;;;;;;0.50;0.40;;;12.50;99.90;;;;;;5032686;28;20196;-83
2023/07/06 02:17:58;;;;;;;0.50;0.40;;;12.50;99.90;;;;;;5032332;28;20443;-83
2023/07/06 02:20:26;;;;;;;0.50;0.40;;;12.50;99.90;;;;;;5023975;28;20454;-82
2023/07/06 02:22:52;;;;;;;0.50;0.40;;;12.50;99.90;;;;;;5032291;28;20471;-83
2023/07/06 02:25:20;;;;;;;0.50;0.40;;;12.50;99.90;;;;;;5028556;28;20439;-83
2023/07/06 02:27:47;;;;;;;0.50;0.37;;;12.50;99.90;;;;;;5020678;28;20703;-83
2023/07/06 02:30:14;;;;;;;2.83;1.33;;;12.50;99.90;;;;;;5030731;28;21060;-83
2023/07/06 02:32:41;;;;;;;0.50;0.40;;;12.50;99.90;;;;;;5032067;28;20473;-80
2023/07/06 02:35:09;;;;;;;0.50;0.40;;;12.50;99.90;;;;;;5023668;28;20448;-83
2023/07/06 02:37:38;;;;;;;0.70;0.70;;;12.50;99.90;;;;;;5024005;28;20821;-82
2023/07/06 02:40:07;;;;;;;0.50;0.40;;;12.40;99.90;;;;;;5022236;28;20231;-82
2023/07/06 02:42:34;;;;;;;0.50;0.40;;;12.50;99.90;;;;;;5025823;28;20504;-83
2023/07/06 02:45:01;;;;;;;0.50;0.40;;;12.40;99.90;;;;;;5023792;28;20590;-83
2023/07/06 02:47:28;;;;;;;0.50;0.40;;;12.40;99.90;;;;;;5031933;28;20501;-83
2023/07/06 02:49:55;;;;;;;0.50;0.40;;;12.30;99.90;;;;;;5031719;28;20532;-83
2023/07/06 02:52:21;;;;;;;0.50;0.40;;;12.40;99.90;;;;;;5023089;28;20449;-82
2023/07/06 02:54:51;;;;;;;0.50;0.40;;;12.30;99.90;;;;;;5031924;28;20438;-82
2023/07/06 02:57:18;;;;;;;0.50;0.40;;;12.40;99.90;;;;;;5029239;28;20439;-82
2023/07/06 02:59:44;;;;;;;2.30;2.20;;;12.40;99.90;;;;;;5026144;28;20211;-82
2023/07/06 03:02:12;;;;;;;0.50;0.40;;;12.40;99.90;;;;;;5023132;28;20443;-82
2023/07/06 03:04:39;;;;;;;0.60;0.60;;;12.40;99.90;;;;;;5023537;28;20953;-83
2023/07/06 03:07:07;;;;;;;0.50;0.40;;;12.40;99.90;;;;;;5031575;28;20488;-82
2023/07/06 03:09:33;;;;;;;0.50;0.40;;;12.30;99.90;;;;;;5031374;28;20457;-83
2023/07/06 03:12:05;;;;;;;0.50;0.40;;;12.30;99.90;;;;;;5027735;28;20479;-83
2023/07/06 03:14:32;;;;;;;0.50;0.40;;;12.30;99.90;;;;;;5034579;28;20218;-83
2023/07/06 03:16:59;;;;;;;0.50;0.40;;;12.30;99.90;;;;;;5033535;28;20606;-84
2023/07/06 03:19:26;;;;;;;0.50;0.40;;;12.30;99.90;;;;;;5020573;28;20445;-84
2023/07/06 03:21:58;;;;;;;0.50;0.40;;;12.30;99.90;;;;;;5029023;28;20445;-84
2023/07/06 03:24:25;;;;;;;0.70;0.70;;;12.30;99.90;;;;;;5019610;28;20462;-82
2023/07/06 03:26:52;;;;;;;0.50;0.40;;;12.30;99.90;;;;;;5036476;28;21007;-84
2023/07/06 03:29:21;;;;;;;0.50;0.40;;;12.20;99.90;;;;;;5026890;28;20501;-83
2023/07/06 03:31:48;;;;;;;0.50;0.40;;;12.20;99.90;;;;;;5029618;28;20565;-82
2023/07/06 03:34:14;;;;;;;0.93;0.70;;;12.20;99.90;;;;;;5024090;28;20512;-84
2023/07/06 03:36:41;;;;;;;0.50;0.40;;;12.20;99.90;;;;;;5030072;28;20450;-81
2023/07/06 03:39:11;;;;;;;0.50;0.40;;;12.30;99.90;;;;;;5028357;28;20447;-84
2023/07/06 03:41:38;;;;;;;0.50;0.40;;;12.30;99.90;;;;;;5030777;28;20442;-83
2023/07/06 03:44:05;;;;;;;0.65;0.65;;;12.30;99.90;;;;;;5031893;28;20250;-84
2023/07/06 03:46:34;;;;;;;0.50;0.40;;;12.30;99.90;;;;;;5039666;28;20306;-82
2023/07/06 03:49:03;;;;;;;0.50;0.40;;;12.40;99.90;;;;;;5032390;28;20448;-84
2023/07/06 03:51:30;;;;;;;0.50;0.40;;;12.40;99.90;;;;;;5039997;28;20451;-84
2023/07/06 03:53:57;;;;;;;0.50;0.40;;;12.40;99.90;;;;;;5039635;28;20466;-83
2023/07/06 03:56:27;;;;;;;0.50;0.40;;;12.40;99.90;;;;;;5030891;28;20957;-84
2023/07/06 03:58:56;;;;;;;0.60;0.50;;;12.40;99.90;;;;;;5032520;28;20445;-82
2023/07/06 04:01:23;;;;;;;0.50;0.40;;;12.40;99.90;;;;;;5029807;28;20578;-81
2023/07/06 04:03:52;;;;;;;0.60;0.50;;;12.50;99.90;;;;;;5036375;28;20457;-83
2023/07/06 04:06:19;;;;;;;4.57;1.13;;;12.50;99.90;;;;;;5030565;28;20446;-82
2023/07/06 04:08:46;;;;;;;0.83;0.83;;;12.50;99.90;;;;;;5037558;28;20457;-81
2023/07/06 04:11:13;;;;;;;0.50;0.40;;;12.50;99.90;;;;;;5027424;28;20538;-83
2023/07/06 04:13:41;;;;;;;0.50;0.40;;;12.50;99.90;;;;;;5027033;28;20466;-81
2023/07/06 04:16:10;;;;;;;0.50;0.40;;;12.50;99.90;;;;;;5027252;28;21044;-81
2023/07/06 04:18:37;;;;;;;0.50;0.40;;;12.50;99.90;;;;;;5029135;28;20457;-81
2023/07/06 04:21:05;;;;;;;0.50;0.40;;;12.60;99.90;;;;;;5028079;28;20446;-81
2023/07/06 04:23:32;;;;;;;5.17;0.93;;;12.60;99.90;;;;;;5017946;28;20471;-81
2023/07/06 04:25:59;;;;;;;0.50;0.40;;;12.60;99.90;;;;;;5025564;28;20451;-82
2023/07/06 04:28:26;;;;;;;0.50;0.40;;;12.60;99.90;;;;;;5027537;28;20934;-79
2023/07/06 04:30:53;;;;;;;7.50;0.80;;;12.70;99.90;;;;;;5028345;28;20442;-81
2023/07/06 04:33:20;;;;;;;0.50;0.40;;;12.70;99.90;;;;;;5028310;28;20462;-81
2023/07/06 04:35:51;;;;;;;0.50;0.40;;;12.70;99.90;;;;;;5028550;28;20246;-81
2023/07/06 04:38:19;;;;;;;0.50;0.40;;;12.70;99.90;;;;;;5027340;28;20865;-80
2023/07/06 04:40:46;;;;;;;0.50;0.40;;;12.80;99.90;;;;;;5036669;28;20433;-82
2023/07/06 04:43:13;;;;;;;0.50;0.40;;;12.80;99.90;;;;;;5036091;28;20474;-81
2023/07/06 04:45:40;;;;;;;0.50;0.40;;;12.80;99.90;;;;;;5031838;28;20502;-82
2023/07/06 04:48:08;;;;;;;0.50;0.50;;;12.80;99.90;;;;;;5024981;28;20438;-81
2023/07/06 04:50:37;;;;;;;1.10;1.03;;;12.90;99.90;;;;;;5020834;28;20445;-82
2023/07/06 04:53:07;;;;;;;0.50;0.40;;;12.90;99.90;;;;;;5027808;28;20460;-81
2023/07/06 04:55:36;;;;;;;0.50;0.40;;;13.00;99.90;;;;;;5019994;28;20522;-81
2023/07/06 04:58:05;;;;;;;1.20;1.10;;;13.10;99.90;;;;;;5037389;28;20541;-83
2023/07/06 05:00:37;;;;;;;0.83;0.80;;;13.20;99.90;;;;;;5027934;28;20442;-80
2023/07/06 05:03:06;;;;;;;0.87;0.87;;;13.30;99.90;;;;;;5020656;28;20474;-81
2023/07/06 05:05:36;;;;;;;0.97;0.97;;;13.40;99.90;;;;;;5035760;28;20466;-82
2023/07/06 05:08:05;;;;;;;0.50;0.40;;;13.50;99.90;;;;;;5036763;28;20475;-80
2023/07/06 05:10:32;;;;;;;0.50;0.40;;;13.50;99.90;;;;;;5027657;28;20456;-80
2023/07/06 05:13:00;;;;;;;1.27;0.57;;;13.60;99.90;;;;;;5036282;28;20478;-81
2023/07/06 05:15:27;;;;;;;1.33;1.23;;;13.70;99.90;;;;;;5027588;28;20452;-81
2023/07/06 05:17:54;;;;;;;0.50;0.50;;;13.70;99.90;;;;;;5029923;28;20482;-80
2023/07/06 05:20:22;;;;;;;0.50;0.40;;;13.70;99.90;;;;;;5033697;28;20489;-80
2023/07/06 05:22:49;;;;;;;1.63;0.80;;;13.90;99.90;;;;;;5028101;28;20485;-81
2023/07/06 05:25:18;;;;;;;1.80;1.00;;;14.00;99.90;;;;;;5040579;28;20823;-81
2023/07/06 05:27:46;;;;;;;0.50;0.40;;;14.00;99.90;;;;;;5032372;28;20450;-81
2023/07/06 05:30:15;;;;;;;1.53;0.53;;;14.10;99.90;;;;;;5036233;28;20891;-81
2023/07/06 05:32:42;;;;;;;0.87;0.80;;;14.10;99.90;;;;;;5025550;28;20464;-82
2023/07/06 05:35:10;;;;;;;2.20;0.60;;;14.10;99.90;;;;;;5032054;28;20442;-81
2023/07/06 05:37:37;;;;;;;0.50;0.40;;;14.20;99.90;;;;;;5023718;28;20474;-81
2023/07/06 05:40:06;;;;;;;0.90;0.60;;;14.20;99.90;;;;;;5030943;28;20461;-82
2023/07/06 05:42:33;;;;;;;0.50;0.40;;;14.20;99.90;;;;;;5031723;28;20531;-81
2023/07/06 05:45:00;;;;;;;0.87;0.43;;;14.30;99.90;;;;;;5031244;28;20436;-81
2023/07/06 05:47:28;;;;;;;2.10;0.60;;;14.30;99.90;;;;;;5034755;28;20506;-82
2023/07/06 05:49:55;;;;;;;0.87;0.40;;;14.30;99.90;;;;;;5035336;28;20446;-81
2023/07/06 05:52:22;;;;;;;0.90;0.60;;;14.30;99.90;;;;;;5036477;28;20446;-82
2023/07/06 05:54:49;;;;;;;3.30;0.90;;;14.30;99.90;;;;;;5022610;28;20872;-81
2023/07/06 05:57:19;;;;;;;0.50;0.50;;;14.30;99.90;;;;;;5024342;28;20489;-79
2023/07/06 05:59:46;;;;;;;0.70;0.50;;;14.40;99.90;;;;;;5033688;28;20452;-82
2023/07/06 06:02:17;;;;;;;2.20;1.13;;;14.40;99.90;;;;;;5026046;28;20550;-82
2023/07/06 06:04:47;;;;;;;3.13;1.80;;;14.40;99.90;;;;;;5012219;28;20450;-82
2023/07/06 06:07:14;;;;;;;0.50;0.40;;;14.50;99.90;;;;;;5035089;28;20446;-83
2023/07/06 06:09:41;;;;;;;0.50;0.43;;;14.60;99.90;;;;;;5014638;28;20443;-84
2023/07/06 06:12:10;;;;;;;0.50;0.40;;;14.60;99.90;;;;;;5030779;28;20438;-82
2023/07/06 06:14:37;;;;;;;4.77;1.40;;;14.70;99.90;;;;;;5026324;28;20466;-83
2023/07/06 06:17:05;;;;;;;0.50;0.40;;;14.70;99.90;;;;;;5034912;28;20454;-83
2023/07/06 06:19:37;;;;;;;0.87;0.87;;;14.60;99.90;;;;;;5032133;28;20456;-85
2023/07/06 06:22:05;;;;;;;0.97;0.97;;;14.70;99.90;;;;;;5023001;28;20500;-83
2023/07/06 06:24:32;;;;;;;0.80;0.80;;;14.80;99.90;;;;;;5024042;28;20987;-83
2023/07/06 06:27:00;;;;;;;2.97;1.10;;;14.90;99.90;;;;;;5029316;28;20450;-83
2023/07/06 06:29:28;;;;;;;0.50;0.50;;;15.00;99.90;;;;;;5033148;28;20451;-82
2023/07/06 06:31:55;;;;;;;0.50;0.40;;;15.10;99.90;;;;;;5022771;28;20626;-82
2023/07/06 06:34:23;;;;;;;0.50;0.40;;;15.20;99.90;;;;;;5023619;28;20884;-82
2023/07/06 06:36:50;;;;;;;3.80;2.00;;;15.30;99.90;;;;;;5029410;28;20448;-82
2023/07/06 06:39:19;;;;;;;0.50;0.50;;;15.40;99.90;;;;;;5031284;28;20864;-84
2023/07/06 06:41:46;;;;;;;2.20;1.20;;;15.50;99.90;;;;;;5018484;28;20800;-83
2023/07/06 06:44:14;;;;;;;0.50;0.40;;;15.80;99.90;;;;;;5025317;28;21064;-79
2023/07/06 06:46:41;;;;;;;0.50;0.40;;;16.10;99.90;;;;;;5024473;28;20446;-84
2023/07/06 06:49:59;;;;;;;0.50;0.40;;;16.60;99.90;;;;;;5024776;28;20442;-83
2023/07/06 06:52:26;;;;;;;0.50;0.30;;;17.40;99.90;;;;;;5027254;28;20444;-82
2023/07/06 06:54:54;;;;;;;0.60;0.50;;;17.90;99.90;;;;;;5033196;28;20923;-81
2023/07/06 06:57:22;;;;;;;0.50;0.40;;;18.50;99.90;;;;;;5025577;28;20478;-83
2023/07/06 06:59:48;;;;;;;1.53;1.43;;;18.90;99.90;;;;;;5032417;28;20494;-82
2023/07/06 07:02:16;;;;;;;0.50;0.40;;;19.00;99.90;;;;;;5032833;28;20460;-81
2023/07/06 07:04:43;;;;;;;0.50;0.30;;;19.60;99.90;;;;;;5025187;28;20450;-83
2023/07/06 07:07:09;;;;;;;1.47;1.37;;;19.50;99.90;;;;;;5033429;28;20445;-83
2023/07/06 07:09:38;;;;;;;1.83;1.27;;;19.60;99.90;;;;;;5032146;28;20453;-82
2023/07/06 07:12:07;;;;;;;2.80;2.23;;;19.80;99.90;;;;;;5033566;28;20435;-83
2023/07/06 07:14:34;;;;;;;0.50;0.40;;;19.70;99.90;;;;;;5024544;28;20895;-83
2023/07/06 07:17:02;;;;;;;0.50;0.40;;;19.80;99.90;;;;;;5032065;28;20437;-83
2023/07/06 07:19:29;;;;;;;0.60;0.40;;;20.50;99.90;;;;;;5024087;28;20472;-83
2023/07/06 07:21:57;;;;;;;0.60;0.40;;;20.80;99.90;;;;;;5027446;28;20453;-84
2023/07/06 07:24:24;;;;;;;1.33;0.93;;;21.10;99.90;;;;;;5035218;28;20849;-85
2023/07/06 07:26:51;;;;;;;0.97;0.87;;;21.30;99.90;;;;;;5030297;28;20477;-85
2023/07/06 07:29:20;;;;;;;0.60;0.53;;;21.20;99.90;;;;;;5027842;28;20547;-84
2023/07/06 07:31:48;;;;;;;0.50;0.40;;;20.90;99.90;;;;;;5016741;28;20923;-81
2023/07/06 07:34:15;;;;;;;0.50;0.43;;;21.40;99.90;;;;;;5032424;28;20525;-83
2023/07/06 07:36:42;;;;;;;2.30;1.67;;;21.70;99.90;;;;;;5013908;28;20445;-83
2023/07/06 07:39:08;;;;;;;0.50;0.30;;;21.90;99.90;;;;;;5022407;28;20854;-83
2023/07/06 07:41:35;;;;;;;0.60;0.50;;;22.20;99.90;;;;;;5022334;28;20466;-81
2023/07/06 07:44:02;;;;;;;0.50;0.30;;;22.10;99.90;;;;;;5032377;28;20969;-83
2023/07/06 07:46:31;;;;;;;0.60;0.40;;;22.50;99.90;;;;;;5030948;28;20452;-82
2023/07/06 07:48:58;;;;;;;0.50;0.30;;;22.30;99.90;;;;;;5026265;28;20451;-83
2023/07/06 07:51:27;;;;;;;2.90;0.67;;;22.20;99.90;;;;;;5023376;28;20456;-83
2023/07/06 07:53:55;;;;;;;0.60;0.40;;;22.80;99.90;;;;;;5024875;28;20449;-83
2023/07/06 07:56:24;;;;;;;1.83;1.73;;;23.20;99.90;;;;;;5023426;28;20444;-82
2023/07/06 07:58:50;;;;;;;0.60;0.60;;;22.80;99.90;;;;;;5031391;28;20897;-82
2023/07/06 08:01:19;;;;;;;0.50;0.30;;;22.60;99.90;;;;;;5023953;28;20443;-83
2023/07/06 08:03:47;;;;;;;0.50;0.30;;;22.90;99.90;;;;;;5020896;28;20481;-83
2023/07/06 08:06:16;;;;;;;0.50;0.40;;;23.20;99.90;;;;;;5020954;28;20536;-83
2023/07/06 08:08:44;;;;;;;0.50;0.50;;;23.60;99.90;;;;;;5022353;28;20444;-82
2023/07/06 08:11:13;;;;;;;1.10;0.70;;;23.80;99.90;;;;;;5031278;28;20618;-83
2023/07/06 08:13:40;;;;;;;0.50;0.30;;;23.70;99.90;;;;;;5031914;28;20492;-83
2023/07/06 08:16:07;;;;;;;0.60;0.60;;;23.40;99.90;;;;;;5032075;28;21010;-83
2023/07/06 08:18:34;;;;;;;0.50;0.30;;;23.00;99.90;;;;;;5032681;28;20478;-82
2023/07/06 08:21:03;;;;;;;0.50;0.30;;;23.10;99.90;;;;;;5032583;28;20449;-82
2023/07/06 08:23:30;;;;;;;1.57;1.37;;;23.80;99.90;;;;;;5023433;28;20469;-83
2023/07/06 08:25:57;;;;;;;0.50;0.40;;;23.90;99.90;;;;;;5029741;28;20458;-83
2023/07/06 08:28:28;;;;;;;2.47;2.37;;;24.00;99.90;;;;;;5024206;28;20531;-83
2023/07/06 08:30:55;;;;;;;0.50;0.30;;;24.30;99.90;;;;;;5020347;28;20506;-84
2023/07/06 08:33:22;;;;;;;0.50;0.40;;;24.20;99.90;;;;;;5036595;28;20469;-82
2023/07/06 08:35:52;;;;;;;0.50;0.40;;;24.20;99.90;;;;;;5028343;28;20450;-82
2023/07/06 08:38:20;;;;;;;0.50;0.30;;;24.00;99.90;;;;;;5027192;28;20473;-80
2023/07/06 08:40:52;;;;;;;0.50;0.40;;;23.90;99.90;;;;;;5029021;28;20465;-82
2023/07/06 08:43:21;;;;;;;0.50;0.40;;;24.30;99.90;;;;;;5021573;28;20891;-81
2023/07/06 08:45:53;;;;;;;4.57;0.90;;;24.50;97.40;;;;;;5026697;28;20803;-81
2023/07/06 08:48:25;;;;;;;0.50;0.40;;;24.50;96.80;;;;;;5036704;28;20485;-83
2023/07/06 08:50:56;;;;;;;0.50;0.30;;;24.00;98.90;;;;;;5032427;28;20446;-84
2023/07/06 08:53:30;;;;;;;0.50;0.30;;;24.60;99.90;;;;;;5037253;28;20501;-82
2023/07/06 08:56:00;;;;;;;0.50;0.30;;;25.00;99.40;;;;;;5019441;28;20514;-82
2023/07/06 08:58:29;;;;;;;0.50;0.40;;;25.30;95.20;;;;;;5034783;28;20483;-81
2023/07/06 09:01:01;;;;;;;5.40;1.17;;;25.10;92.80;;;;;;5018986;28;20441;-82
2023/07/06 09:03:34;;;;;;;0.50;0.30;;;25.30;94.30;;;;;;5027429;28;20457;-83
2023/07/06 09:06:01;;;;;;;0.50;0.30;;;25.80;91.90;;;;;;5008519;28;20442;-82
2023/07/06 09:08:29;;;;;;;0.60;0.50;;;25.80;92.20;;;;;;5023036;28;20442;-81
2023/07/06 09:10:57;;;;;;;1.90;0.47;;;25.50;90.90;;;;;;5018750;28;20442;-81
2023/07/06 09:13:27;;;;;;;4.53;2.30;;;25.60;89.50;;;;;;5036041;28;20518;-82
2023/07/06 09:16:00;;;;;;;0.50;0.30;;;25.10;89.10;;;;;;5034524;28;20441;-80
2023/07/06 09:18:27;;;;;;;0.77;0.40;;;24.20;90.00;;;;;;5027005;28;20913;-83
2023/07/06 09:20:55;;;;;;;1.23;1.13;;;24.10;91.10;;;;;;5027327;28;20444;-82
2023/07/06 09:23:24;;;;;;;0.50;0.30;;;24.50;93.50;;;;;;5024208;28;20443;-84
2023/07/06 09:25:56;;;;;;;0.50;0.40;;;24.70;90.70;;;;;;5027449;28;20585;-81
2023/07/06 09:28:26;;;;;;;0.50;0.30;;;24.00;88.90;;;;;;5035552;28;20791;-82
2023/07/06 09:31:10;;;;;;;0.50;0.40;;;24.00;93.40;;;;;;5031690;28;20461;-81
2023/07/06 09:33:43;;;;;;;0.50;0.30;;;24.80;91.40;;;;;;5022656;28;20818;-81
2023/07/06 09:36:16;;;;;;;0.63;0.63;;;25.70;91.40;;;;;;5029889;28;20445;-82
2023/07/06 09:38:45;;;;;;;0.50;0.40;;;26.30;86.60;;;;;;5026153;28;20487;-82
2023/07/06 09:41:25;;;;;;;0.50;0.30;;;26.90;90.90;;;;;;5029991;28;20516;-82
2023/07/06 09:43:57;;;;;;;0.50;0.40;;;26.80;81.80;;;;;;5034194;28;20829;-82
2023/07/06 09:46:27;;;;;;;0.60;0.43;;;26.30;81.40;;;;;;5027621;28;20447;-82
2023/07/06 09:48:54;;;;;;;0.50;0.40;;;26.30;83.70;;;;;;5024599;28;20546;-82
2023/07/06 09:51:26;;;;;;;0.50;0.30;;;26.60;80.70;;;;;;5022960;28;20444;-83
2023/07/06 09:53:56;;;;;;;0.50;0.30;;;25.90;81.60;;;;;;5025891;28;20473;-82
2023/07/06 09:56:24;;;;;;;0.50;0.30;;;26.50;81.50;;;;;;5021136;28;20450;-82
2023/07/06 09:58:52;;;;;;;0.50;0.30;;;27.20;79.80;;;;;;5031219;28;21074;-83
2023/07/06 10:01:28;;;;;;;0.50;0.30;;;26.70;81.00;;;;;;5020443;28;20873;-82
2023/07/06 10:04:03;;;;;;;0.50;0.30;;;26.70;82.90;;;;;;5032880;28;20472;-83
2023/07/06 10:06:40;;;;;;;0.50;0.40;;;27.40;79.20;;;;;;5024086;28;20455;-82
2023/07/06 10:09:14;;;;;;;0.50;0.40;;;27.70;76.80;;;;;;5017286;28;20460;-84
2023/07/06 10:11:50;;;;;;;0.50;0.30;;;27.60;73.00;;;;;;5023541;28;20505;-81
2023/07/06 10:14:25;;;;;;;0.90;0.73;;;27.20;72.90;;;;;;5026027;28;20521;-80
2023/07/06 10:17:01;;;;;;;1.33;0.80;;;27.00;72.30;;;;;;5024950;28;20943;-82
2023/07/06 10:19:32;;;;;;;0.50;0.30;;;26.90;71.90;;;;;;5033492;28;20509;-83
2023/07/06 10:22:10;;;;;;;0.50;0.30;;;27.00;75.90;;;;;;5031436;28;20916;-80
2023/07/06 10:24:45;;;;;;;0.50;0.30;;;27.10;72.50;;;;;;5015762;28;20933;-83
2023/07/06 10:27:21;;;;;;;0.50;0.30;;;27.50;79.50;;;;;;5022591;28;20446;-83
2023/07/06 10:29:52;;;;;;;0.50;0.30;;;27.80;72.90;;;;;;5028030;28;20468;-83
2023/07/06 10:32:24;;;;;;;0.50;0.30;;;28.00;72.90;;;;;;5035134;28;20951;-83
2023/07/06 10:34:56;;;;;;;0.50;0.30;;;28.80;75.90;;;;;;5034119;28;20492;-82
2023/07/06 10:37:25;;;;;;;0.50;0.40;;;28.80;67.80;;;;;;5030830;28;20449;-84
2023/07/06 10:40:10;;;;;;;1.80;0.83;;;28.10;72.30;;;;;;5027638;28;20472;-83
2023/07/06 10:42:43;;;;;;;0.50;0.30;;;26.90;73.60;;;;;;5035731;28;20475;-84
2023/07/06 10:45:24;;;;;;;0.50;0.30;;;26.00;77.30;;;;;;5029103;28;20738;-83
2023/07/06 10:47:51;;;;;;;0.70;0.70;;;26.10;75.60;;;;;;5027606;28;20505;-84
2023/07/06 10:50:28;;;;;;;0.50;0.30;;;25.20;76.10;;;;;;5036236;28;21040;-84
2023/07/06 10:53:17;;;;;;;0.50;0.40;;;24.70;77.90;;;;;;5026524;28;20472;-83
2023/07/06 10:55:58;;;;;;;0.50;0.30;;;24.50;76.50;;;;;;5032868;28;20454;-84
2023/07/06 10:58:29;;;;;;;0.50;0.30;;;24.40;79.40;;;;;;5027909;28;20499;-82
2023/07/06 11:00:58;;;;;;;0.70;0.60;;;24.20;80.60;;;;;;5025178;28;20936;-82
2023/07/06 11:03:28;;;;;;;0.50;0.30;;;24.20;78.60;;;;;;5017817;28;20486;-83
2023/07/06 11:05:58;;;;;;;1.63;0.40;;;24.70;77.50;;;;;;5024685;28;20481;-84
2023/07/06 11:09:12;;;;;;;0.50;0.40;;;24.50;78.10;;;;;;5026441;28;20447;-83
2023/07/06 11:11:41;;;;;;;0.50;0.40;;;24.20;78.80;;;;;;5027350;28;20453;-84
2023/07/06 11:14:22;;;;;;;0.70;0.50;;;23.80;80.50;;;;;;5026974;28;20473;-83
2023/07/06 11:16:56;;;;;;;0.50;0.40;;;24.00;79.90;;;;;;5026462;28;20499;-83
2023/07/06 11:19:27;;;;;;;0.50;0.40;;;23.70;80.60;;;;;;5024136;28;20491;-84
2023/07/06 11:21:58;;;;;;;2.47;0.40;;;24.10;82.80;;;;;;5025517;28;20445;-83
2023/07/06 11:24:32;;;;;;;0.50;0.40;;;25.20;80.40;;;;;;5039423;28;20515;-82
2023/07/06 11:27:04;;;;;;;0.50;0.30;;;25.50;78.00;;;;;;5038243;28;20511;-83
2023/07/06 11:29:34;;;;;;;0.50;0.30;;;26.10;80.50;;;;;;5046000;28;20570;-83
2023/07/06 11:32:14;;;;;;;0.50;0.30;;;27.20;84.00;;;;;;5035486;28;20497;-84
2023/07/06 11:34:48;;;;;;;0.50;0.30;;;28.10;74.20;;;;;;5035036;28;20453;-83
2023/07/06 11:37:25;;;;;;;0.50;0.30;;;28.80;69.30;;;;;;5018868;28;20805;-84
2023/07/06 11:40:04;;;;;;;0.50;0.30;;;28.80;66.30;;;;;;5024224;28;20445;-82
2023/07/06 11:42:44;;;;;;;0.40;0.30;;;28.40;65.40;;;;;;5033262;28;20891;-82
2023/07/06 11:45:22;;;;;;;0.50;0.30;;;28.30;67.00;;;;;;5013399;28;20440;-82
2023/07/06 11:48:08;;;;;;;0.50;0.30;;;28.30;69.10;;;;;;5029171;28;20453;-82
2023/07/06 11:50:39;;;;;;;0.50;0.30;;;27.90;70.60;;;;;;5027396;28;20518;-84
2023/07/06 11:53:17;;;;;;;0.50;0.30;;;27.50;70.20;;;;;;5024364;28;20500;-82
2023/07/06 11:55:54;;;;;;;0.50;0.30;;;27.20;70.70;;;;;;5033600;28;20485;-82
2023/07/06 11:58:31;;;;;;;1.57;1.47;;;26.80;74.90;;;;;;5019082;28;20448;-82
2023/07/06 12:01:10;;;;;;;1.47;0.67;;;26.20;69.00;;;;;;5024769;28;20451;-82
2023/07/06 12:03:38;;;;;;;0.50;0.40;;;25.40;70.50;;;;;;5033132;28;20470;-83
2023/07/06 12:06:04;;;;;;;0.50;0.50;;;24.80;71.90;;;;;;5040220;28;20818;-82
2023/07/06 12:08:35;;;;;;;0.50;0.40;;;24.20;72.30;;;;;;5038295;28;20445;-82
2023/07/06 12:11:05;;;;;;;1.07;0.93;;;23.90;76.70;;;;;;5028046;28;20470;-83
2023/07/06 12:13:35;;;;;;;0.50;0.40;;;23.80;76.30;;;;;;5029662;28;20465;-83
2023/07/06 12:16:13;;;;;;;0.50;0.40;;;23.70;78.10;;;;;;5036206;28;20489;-82
2023/07/06 12:18:41;;;;;;;0.50;0.30;;;23.90;83.90;;;;;;5023381;28;20473;-83
2023/07/06 12:21:23;;;;;;;0.50;0.30;;;24.90;74.70;;;;;;5033689;28;20453;-83
2023/07/06 12:23:50;;;;;;;0.50;0.30;;;25.60;74.70;;;;;;5034858;28;20471;-82
2023/07/06 12:26:16;;;;;;;0.50;0.30;;;25.20;72.10;;;;;;5037852;28;20447;-82
2023/07/06 12:28:46;;;;;;;0.50;0.40;;;25.30;73.70;;;;;;5037582;28;20440;-82
2023/07/06 12:31:16;;;;;;;2.87;2.77;;;25.80;71.00;;;;;;5024226;28;20449;-82
2023/07/06 12:33:43;;;;;;;4.47;0.93;;;27.20;72.90;;;;;;5032040;28;20466;-82
2023/07/06 12:36:12;;;;;;;0.50;0.30;;;28.10;66.10;;;;;;5032231;28;20458;-83
2023/07/06 12:38:39;;;;;;;0.50;0.30;;;27.80;68.80;;;;;;5031214;28;20452;-82
2023/07/06 12:41:19;;;;;;;0.50;0.30;;;28.30;73.10;;;;;;5034718;28;20446;-80
2023/07/06 12:43:46;;;;;;;0.50;0.30;;;29.30;64.60;;;;;;5027414;28;20461;-82
2023/07/06 12:46:14;;;;;;;0.50;0.30;;;30.00;69.40;;;;;;5035126;28;20453;-83
2023/07/06 12:48:48;;;;;;;0.50;0.30;;;30.60;67.50;;;;;;5034894;28;20480;-82
2023/07/06 12:51:21;;;;;;;0.50;0.30;;;29.80;61.10;;;;;;5015096;28;20439;-83
2023/07/06 12:53:49;;;;;;;0.50;0.30;;;29.10;62.70;;;;;;5031514;28;20465;-82
2023/07/06 12:56:19;;;;;;;0.50;0.30;;;27.90;62.30;;;;;;5027584;28;20482;-82
2023/07/06 12:58:48;;;;;;;0.50;0.30;;;28.10;63.30;;;;;;5027415;28;20817;-82
2023/07/06 13:01:20;;;;;;;0.50;0.30;;;28.60;67.00;;;;;;5034338;28;20802;-82
2023/07/06 13:03:52;;;;;;;0.50;0.30;;;28.80;66.40;;;;;;5026441;28;20507;-81